Time;durP1;ratioP1;P1;durP2;ratioP2;P2;SDS_P1;SDS_P2;PMS_P1;PMS_P2;Temp;Humidity;BMP_temperature;BMP_pressure;BME280_temperature;BME280_humidity;BME280_pressure;Samples;Min_cycle;Max_cycle;Signal;HPM_P1;HPM_P2
2021/07/24 00:01:03;;;;;;;14.95;11.23;;;20.70;97.90;;;;;;4964132;28;20450;-78
2021/07/24 00:03:32;;;;;;;15.50;11.20;;;20.60;98.10;;;;;;4959759;28;20121;-77
2021/07/24 00:05:59;;;;;;;14.88;9.88;;;20.50;98.30;;;;;;4966833;28;20081;-77
2021/07/24 00:08:26;;;;;;;11.70;8.80;;;20.50;98.50;;;;;;4971550;28;20126;-78
2021/07/24 00:10:53;;;;;;;12.82;9.32;;;20.50;98.70;;;;;;4963748;28;20134;-77
2021/07/24 00:13:20;;;;;;;13.93;9.40;;;20.50;98.90;;;;;;4964133;28;20049;-78
2021/07/24 00:15:47;;;;;;;13.35;9.88;;;20.50;98.90;;;;;;4966772;28;20042;-77
2021/07/24 00:18:14;;;;;;;17.13;10.88;;;20.50;98.80;;;;;;4965352;28;20471;-76
2021/07/24 00:20:43;;;;;;;14.20;10.50;;;20.60;98.60;;;;;;4961160;28;20125;-78
2021/07/24 00:23:11;;;;;;;13.35;9.90;;;20.50;98.60;;;;;;4966146;28;20046;-77
2021/07/24 00:25:40;;;;;;;15.35;10.43;;;20.50;98.80;;;;;;4963478;28;20039;-78
2021/07/24 00:28:07;;;;;;;15.15;11.55;;;20.50;98.70;;;;;;4969977;28;20055;-79
2021/07/24 00:30:38;;;;;;;17.27;11.75;;;20.50;98.70;;;;;;4963397;28;20418;-78
2021/07/24 00:33:05;;;;;;;18.20;12.05;;;20.40;98.60;;;;;;4963170;28;20066;-78
2021/07/24 00:35:32;;;;;;;14.38;10.40;;;20.40;98.60;;;;;;4964244;28;20043;-78
2021/07/24 00:38:01;;;;;;;14.93;10.60;;;20.30;98.70;;;;;;4964208;28;20134;-76
2021/07/24 00:40:31;;;;;;;14.13;9.77;;;20.20;98.80;;;;;;4970230;28;20047;-78
2021/07/24 00:42:59;;;;;;;15.65;10.02;;;20.20;98.90;;;;;;4975212;28;20115;-78
2021/07/24 00:45:29;;;;;;;15.57;10.73;;;20.20;99.00;;;;;;4966334;28;20121;-78
2021/07/24 00:47:58;;;;;;;14.13;10.13;;;20.20;99.10;;;;;;4974403;28;20062;-77
2021/07/24 00:50:25;;;;;;;14.18;10.45;;;20.20;99.00;;;;;;4976609;28;20038;-78
2021/07/24 00:52:59;;;;;;;16.05;10.50;;;20.10;99.00;;;;;;4965979;28;20054;-77
2021/07/24 00:55:27;;;;;;;14.83;9.83;;;20.10;99.00;;;;;;4961745;28;20047;-78
2021/07/24 00:57:56;;;;;;;12.50;9.55;;;20.10;99.00;;;;;;4961154;28;20291;-77
2021/07/24 01:00:23;;;;;;;13.07;9.32;;;20.00;99.10;;;;;;4961428;28;20065;-77
2021/07/24 01:02:50;;;;;;;11.38;8.52;;;20.00;99.30;;;;;;4966408;28;20074;-76
2021/07/24 01:05:17;;;;;;;15.73;10.38;;;20.00;99.30;;;;;;4958795;28;20116;-78
2021/07/24 01:07:44;;;;;;;14.57;9.95;;;20.00;99.00;;;;;;4966026;28;20046;-78
2021/07/24 01:10:12;;;;;;;13.88;10.52;;;19.90;98.90;;;;;;4964019;28;20461;-77
2021/07/24 01:12:40;;;;;;;14.50;10.10;;;19.90;98.90;;;;;;4964549;28;20039;-77
2021/07/24 01:15:09;;;;;;;15.45;10.23;;;19.90;99.00;;;;;;4963700;28;20133;-78
2021/07/24 01:17:36;;;;;;;13.45;9.65;;;19.90;99.10;;;;;;4964189;28;20561;-78
2021/07/24 01:20:05;;;;;;;12.52;9.60;;;19.90;99.20;;;;;;4963224;28;20050;-78
2021/07/24 01:22:33;;;;;;;13.38;9.88;;;19.90;99.40;;;;;;4963951;28;20153;-76
2021/07/24 01:25:00;;;;;;;14.95;9.70;;;19.90;99.40;;;;;;4962622;28;20397;-78
2021/07/24 01:27:27;;;;;;;15.13;10.68;;;19.90;99.40;;;;;;4965130;28;20051;-78
2021/07/24 01:29:54;;;;;;;14.32;10.30;;;19.90;99.10;;;;;;4962366;28;20047;-78
2021/07/24 01:32:21;;;;;;;12.68;9.60;;;19.80;99.20;;;;;;4968821;28;20765;-78
2021/07/24 01:34:48;;;;;;;14.80;10.07;;;19.70;99.50;;;;;;4977714;28;20075;-78
2021/07/24 01:37:15;;;;;;;17.48;11.88;;;19.70;99.30;;;;;;4978315;28;20137;-78
2021/07/24 01:39:44;;;;;;;14.52;10.45;;;19.60;99.20;;;;;;4977711;28;20078;-78
2021/07/24 01:42:11;;;;;;;14.93;10.25;;;19.50;99.50;;;;;;4962285;28;20073;-77
2021/07/24 01:44:38;;;;;;;14.52;10.48;;;19.40;99.60;;;;;;4964288;28;20768;-77
2021/07/24 01:47:05;;;;;;;15.23;10.57;;;19.40;99.70;;;;;;4977060;28;20050;-77
2021/07/24 01:55:14;;;;;;;13.52;9.73;;;19.30;99.90;;;;;;4978029;28;20113;-77
2021/07/24 01:57:48;;;;;;;13.82;9.68;;;19.30;99.90;;;;;;4973781;28;20039;-78
2021/07/24 02:00:16;;;;;;;15.85;10.27;;;19.30;99.90;;;;;;4974266;28;20138;-76
2021/07/24 02:02:47;;;;;;;13.32;10.13;;;19.30;99.80;;;;;;4972582;28;20134;-76
2021/07/24 02:05:28;;;;;;;14.35;10.40;;;19.30;99.80;;;;;;4968534;28;20066;-78
2021/07/24 02:07:59;;;;;;;13.80;9.65;;;19.20;99.90;;;;;;4967216;28;20053;-78
2021/07/24 02:10:27;;;;;;;11.75;8.82;;;19.20;99.90;;;;;;4966360;28;20405;-79
2021/07/24 02:12:55;;;;;;;14.57;9.45;;;19.20;99.90;;;;;;4967284;28;20138;-77
2021/07/24 02:15:22;;;;;;;13.18;9.63;;;19.20;99.90;;;;;;4968732;28;20138;-77
2021/07/24 02:17:50;;;;;;;15.50;10.77;;;19.30;99.90;;;;;;4970041;28;20072;-76
2021/07/24 02:20:21;;;;;;;15.80;10.93;;;19.20;99.80;;;;;;4969184;28;20513;-80
2021/07/24 02:22:48;;;;;;;15.68;10.85;;;19.10;99.90;;;;;;4968717;28;20416;-78
2021/07/24 02:25:15;;;;;;;15.90;10.20;;;19.00;99.90;;;;;;4964074;28;20077;-79
2021/07/24 02:27:47;;;;;;;17.08;10.82;;;18.90;99.90;;;;;;4969975;28;20137;-76
2021/07/24 02:30:14;;;;;;;14.60;11.00;;;18.90;99.90;;;;;;4968268;28;20137;-78
2021/07/24 02:32:42;;;;;;;14.50;10.10;;;18.90;99.90;;;;;;4966449;28;20471;-77
2021/07/24 02:35:11;;;;;;;13.55;9.85;;;18.90;99.90;;;;;;4967114;28;20047;-78
2021/07/24 02:37:39;;;;;;;13.57;9.52;;;18.90;99.90;;;;;;4966586;28;20070;-79
2021/07/24 02:40:07;;;;;;;14.55;9.98;;;18.90;99.90;;;;;;4965903;28;20047;-78
2021/07/24 02:42:34;;;;;;;13.73;9.90;;;18.90;99.90;;;;;;4967048;28;20485;-77
2021/07/24 02:45:03;;;;;;;12.77;9.45;;;19.00;99.90;;;;;;4963145;28;20501;-78
2021/07/24 02:47:30;;;;;;;12.98;8.82;;;19.00;99.90;;;;;;4959257;28;20107;-77
2021/07/24 02:49:58;;;;;;;12.07;8.70;;;19.10;99.90;;;;;;4966209;28;20165;-78
2021/07/24 02:52:25;;;;;;;12.77;8.75;;;19.10;99.90;;;;;;4963607;28;20131;-78
2021/07/24 02:54:52;;;;;;;11.68;8.65;;;19.20;99.90;;;;;;4963219;28;20161;-76
2021/07/24 02:57:19;;;;;;;12.02;8.60;;;19.20;99.90;;;;;;4964801;28;20133;-77
2021/07/24 02:59:46;;;;;;;11.68;8.98;;;19.30;99.90;;;;;;4966673;28;20137;-76
2021/07/24 03:02:16;;;;;;;12.98;9.35;;;19.30;99.90;;;;;;4964917;28;20046;-77
2021/07/24 03:04:43;;;;;;;14.10;8.98;;;19.40;99.90;;;;;;4963232;28;20055;-77
2021/07/24 03:07:10;;;;;;;12.27;8.50;;;19.40;99.90;;;;;;4962998;28;20053;-77
2021/07/24 03:09:38;;;;;;;13.95;9.20;;;19.50;99.90;;;;;;4968488;28;20051;-78
2021/07/24 03:12:06;;;;;;;12.57;8.85;;;19.50;99.90;;;;;;4962786;28;20612;-79
2021/07/24 03:14:33;;;;;;;11.18;8.20;;;19.50;99.90;;;;;;4966072;28;20129;-78
2021/07/24 03:17:00;;;;;;;12.07;8.45;;;19.50;99.90;;;;;;4966179;28;20057;-78
2021/07/24 03:19:29;;;;;;;12.98;9.68;;;19.60;99.90;;;;;;4958354;28;20086;-78
2021/07/24 03:21:56;;;;;;;12.75;9.40;;;19.60;99.90;;;;;;4965931;28;20051;-79
2021/07/24 03:24:23;;;;;;;15.30;9.48;;;19.60;99.90;;;;;;4960603;28;20134;-77
2021/07/24 03:26:50;;;;;;;13.20;9.52;;;19.60;99.90;;;;;;4960382;28;20126;-76
2021/07/24 03:29:17;;;;;;;12.63;9.27;;;19.60;99.90;;;;;;4964086;28;20057;-77
2021/07/24 03:31:44;;;;;;;13.40;10.15;;;19.60;99.90;;;;;;4965663;28;20055;-78
2021/07/24 03:34:11;;;;;;;15.20;10.13;;;19.50;99.90;;;;;;4964092;28;20053;-78
2021/07/24 03:36:40;;;;;;;13.82;9.70;;;19.50;99.90;;;;;;4965942;28;20130;-78
2021/07/24 03:39:07;;;;;;;13.55;9.57;;;19.50;99.90;;;;;;4964975;28;20046;-77
2021/07/24 03:41:35;;;;;;;13.45;9.40;;;19.40;99.90;;;;;;4961967;28;20126;-79
2021/07/24 03:44:02;;;;;;;14.45;8.68;;;19.40;99.90;;;;;;4960511;28;20059;-77
2021/07/24 03:46:29;;;;;;;13.73;9.85;;;19.40;99.90;;;;;;4962448;28;20066;-76
2021/07/24 03:48:57;;;;;;;13.43;9.60;;;19.40;99.90;;;;;;4968619;28;20125;-78
2021/07/24 03:51:24;;;;;;;14.60;9.98;;;19.30;99.90;;;;;;4962040;28;20044;-78
2021/07/24 03:53:52;;;;;;;14.18;9.80;;;19.20;99.90;;;;;;4970809;28;20051;-77
2021/07/24 03:56:22;;;;;;;13.68;9.35;;;19.20;99.90;;;;;;4963205;28;20129;-78
2021/07/24 03:58:52;;;;;;;15.45;10.50;;;19.10;99.90;;;;;;4962081;28;20044;-77
2021/07/24 04:01:21;;;;;;;13.27;9.23;;;19.10;99.90;;;;;;4963972;28;20078;-78
2021/07/24 04:03:48;;;;;;;14.80;9.80;;;19.10;99.90;;;;;;4967369;28;20047;-77
2021/07/24 04:06:22;;;;;;;14.05;9.48;;;19.00;99.90;;;;;;4961961;28;20051;-78
2021/07/24 04:08:49;;;;;;;13.55;9.63;;;19.00;99.90;;;;;;4967448;28;20058;-77
2021/07/24 04:11:21;;;;;;;16.30;10.30;;;19.10;99.90;;;;;;4964996;28;20054;-78
2021/07/24 04:13:49;;;;;;;15.15;10.57;;;19.10;99.90;;;;;;4963849;28;20513;-78
2021/07/24 04:16:16;;;;;;;15.13;9.75;;;19.10;99.90;;;;;;4965523;28;20051;-77
2021/07/24 04:18:43;;;;;;;12.70;9.23;;;19.10;99.90;;;;;;4969636;28;20480;-76
2021/07/24 04:21:12;;;;;;;14.32;9.38;;;19.00;99.90;;;;;;4964378;28;20055;-78
2021/07/24 04:23:40;;;;;;;13.63;8.60;;;19.00;99.90;;;;;;4959284;28;20050;-77
2021/07/24 04:26:07;;;;;;;11.50;7.65;;;19.10;99.90;;;;;;4970978;28;20046;-78
2021/07/24 04:28:35;;;;;;;13.68;8.88;;;19.10;99.90;;;;;;4968267;28;20580;-80
2021/07/24 04:31:02;;;;;;;14.25;9.07;;;19.20;99.90;;;;;;4966596;28;20142;-80
2021/07/24 04:33:30;;;;;;;16.02;9.88;;;19.20;99.90;;;;;;4959479;28;20133;-78
2021/07/24 04:38:33;;;;;;;15.35;10.43;;;19.20;99.90;;;;;;4981982;28;20487;-79
2021/07/24 04:41:00;;;;;;;12.93;9.68;;;19.10;99.90;;;;;;4984408;28;20133;-76
2021/07/24 04:43:27;;;;;;;14.40;9.55;;;19.10;99.90;;;;;;4993849;28;20488;-79
2021/07/24 04:45:55;;;;;;;16.13;10.98;;;19.10;99.90;;;;;;4993678;28;20054;-78
2021/07/24 04:48:22;;;;;;;17.23;10.90;;;19.10;99.90;;;;;;4993816;28;20145;-78
2021/07/24 04:50:53;;;;;;;14.77;10.38;;;19.10;99.90;;;;;;4993833;28;20060;-78
2021/07/24 04:53:21;;;;;;;13.25;9.77;;;19.10;99.90;;;;;;4993051;28;20487;-79
2021/07/24 04:55:49;;;;;;;14.25;10.15;;;19.00;99.90;;;;;;4993696;28;20052;-79
2021/07/24 04:58:18;;;;;;;13.98;9.48;;;19.00;99.90;;;;;;4993880;28;20074;-76
2021/07/24 05:00:47;;;;;;;13.88;9.50;;;19.00;99.90;;;;;;4986071;28;20055;-79
2021/07/24 05:03:17;;;;;;;14.68;10.10;;;19.00;99.90;;;;;;4990515;28;20141;-80
2021/07/24 05:05:45;;;;;;;14.13;9.70;;;19.10;99.90;;;;;;4990581;28;20129;-78
2021/07/24 05:08:14;;;;;;;15.55;10.30;;;19.10;99.90;;;;;;4993189;28;20052;-77
2021/07/24 05:10:42;;;;;;;14.18;10.10;;;19.20;99.90;;;;;;4998857;28;20054;-79
2021/07/24 05:13:09;;;;;;;16.05;10.00;;;19.20;99.90;;;;;;4993427;28;20047;-77
2021/07/24 05:15:37;;;;;;;14.55;10.27;;;19.20;99.90;;;;;;4993494;28;20056;-81
2021/07/24 05:18:05;;;;;;;13.57;10.25;;;19.30;99.90;;;;;;4993334;28;20046;-80
2021/07/24 05:20:33;;;;;;;13.85;9.63;;;19.30;99.90;;;;;;4984778;28;20046;-74
2021/07/24 05:23:00;;;;;;;12.50;9.20;;;19.20;99.90;;;;;;4981772;28;20408;-76
2021/07/24 05:25:27;;;;;;;14.40;9.40;;;19.30;99.90;;;;;;4988169;28;20074;-76
2021/07/24 05:27:54;;;;;;;14.98;9.35;;;19.30;99.90;;;;;;4994570;28;20487;-74
2021/07/24 05:30:21;;;;;;;12.05;8.20;;;19.30;99.90;;;;;;5001914;28;20102;-75
2021/07/24 05:32:48;;;;;;;13.07;9.50;;;19.50;99.90;;;;;;4995620;28;20125;-74
2021/07/24 05:35:15;;;;;;;12.55;8.77;;;19.50;99.90;;;;;;4994002;28;20466;-75
2021/07/24 05:37:44;;;;;;;12.32;8.82;;;19.60;99.90;;;;;;4993453;28;20061;-75
2021/07/24 05:40:11;;;;;;;13.10;8.73;;;19.80;99.90;;;;;;4993014;28;20054;-75
2021/07/24 05:42:38;;;;;;;12.13;8.73;;;19.90;99.90;;;;;;4992769;28;20126;-75
2021/07/24 05:45:07;;;;;;;14.63;10.02;;;20.00;99.90;;;;;;4992663;28;20053;-79
2021/07/24 05:47:34;;;;;;;12.05;8.93;;;20.10;99.90;;;;;;4993113;28;20129;-78
2021/07/24 05:50:03;;;;;;;17.38;11.48;;;20.20;99.90;;;;;;4992540;28;20052;-79
2021/07/24 05:52:30;;;;;;;14.07;9.68;;;20.20;99.90;;;;;;4993319;28;20073;-78
2021/07/24 05:54:58;;;;;;;15.38;10.25;;;20.10;99.90;;;;;;4993306;28;20078;-77
2021/07/24 05:57:25;;;;;;;13.07;9.55;;;20.20;99.90;;;;;;4993090;28;20125;-78
2021/07/24 05:59:52;;;;;;;13.55;10.05;;;20.20;99.90;;;;;;4992344;28;20054;-76
2021/07/24 06:02:23;;;;;;;13.52;10.20;;;20.20;99.90;;;;;;4992156;28;20133;-77
2021/07/24 06:04:50;;;;;;;14.50;9.48;;;20.20;99.90;;;;;;4992592;28;20050;-78
2021/07/24 06:07:17;;;;;;;14.13;9.30;;;20.30;99.90;;;;;;4992746;28;20105;-76
2021/07/24 06:09:45;;;;;;;15.30;10.02;;;20.30;99.60;;;;;;4992304;28;20081;-76
2021/07/24 06:12:14;;;;;;;13.73;9.15;;;20.40;99.40;;;;;;4992261;28;20057;-77
2021/07/24 06:14:41;;;;;;;12.18;9.07;;;20.40;99.50;;;;;;5000477;28;20138;-78
2021/07/24 06:17:08;;;;;;;13.30;9.05;;;20.40;99.30;;;;;;4992978;28;20054;-77
2021/07/24 06:19:35;;;;;;;14.52;10.20;;;20.40;99.20;;;;;;4994469;28;20052;-78
2021/07/24 06:22:02;;;;;;;12.63;8.70;;;20.50;99.50;;;;;;4996304;28;20054;-77
2021/07/24 06:24:29;;;;;;;11.82;8.77;;;20.50;99.30;;;;;;4981471;28;20129;-79
2021/07/24 06:26:56;;;;;;;15.18;11.07;;;20.60;99.30;;;;;;4989009;28;20049;-79
2021/07/24 06:29:31;;;;;;;14.75;10.35;;;20.60;99.20;;;;;;4988289;28;20046;-76
2021/07/24 06:31:58;;;;;;;16.05;10.50;;;20.60;99.20;;;;;;4981057;28;20093;-76
2021/07/24 06:34:25;;;;;;;15.23;10.90;;;20.60;99.20;;;;;;4986502;28;20050;-76
2021/07/24 06:36:52;;;;;;;14.07;10.35;;;20.60;99.30;;;;;;4989326;28;20054;-79
2021/07/24 06:39:19;;;;;;;17.08;11.70;;;20.60;99.30;;;;;;4987593;28;20043;-78
2021/07/24 06:41:46;;;;;;;14.85;9.45;;;20.50;99.10;;;;;;4989125;28;20046;-80
2021/07/24 06:44:13;;;;;;;11.98;8.77;;;20.60;99.20;;;;;;4995110;28;20046;-78
2021/07/24 06:46:42;;;;;;;11.10;8.55;;;20.60;99.20;;;;;;4995605;28;20077;-79
2021/07/24 06:49:09;;;;;;;13.32;8.48;;;20.70;99.20;;;;;;4994708;28;20471;-76
2021/07/24 06:51:36;;;;;;;12.15;8.70;;;20.70;99.30;;;;;;4994572;28;20053;-77
2021/07/24 06:54:03;;;;;;;13.70;9.65;;;20.90;99.40;;;;;;5001614;28;20043;-79
2021/07/24 06:56:33;;;;;;;13.20;9.40;;;20.90;99.20;;;;;;4992796;28;20110;-75
2021/07/24 06:59:00;;;;;;;13.05;9.10;;;21.10;99.30;;;;;;4985056;28;20057;-75
2021/07/24 07:01:27;;;;;;;16.33;10.20;;;21.10;99.40;;;;;;5000385;28;20129;-78
2021/07/24 07:03:55;;;;;;;14.95;9.70;;;21.20;99.50;;;;;;5003772;28;20110;-78
2021/07/24 07:06:22;;;;;;;14.50;9.82;;;21.30;99.80;;;;;;5003393;28;20078;-77
2021/07/24 07:08:49;;;;;;;15.23;9.38;;;21.30;99.40;;;;;;4986584;28;20055;-75
2021/07/24 07:11:16;;;;;;;14.23;10.15;;;21.40;99.40;;;;;;4985878;28;20058;-76
2021/07/24 07:13:43;;;;;;;17.50;11.30;;;21.40;99.10;;;;;;4989649;28;20057;-77
2021/07/24 07:16:11;;;;;;;14.30;9.93;;;21.40;98.90;;;;;;4985078;28;20053;-76
2021/07/24 07:18:38;;;;;;;15.05;9.35;;;21.30;99.10;;;;;;4977913;28;20130;-77
2021/07/24 07:21:10;;;;;;;15.32;9.60;;;21.30;99.30;;;;;;4985744;28;20046;-75
2021/07/24 07:23:37;;;;;;;15.75;10.60;;;21.30;99.40;;;;;;4991131;28;20049;-75
2021/07/24 07:26:04;;;;;;;14.40;9.98;;;21.40;99.30;;;;;;4986535;28;20102;-76
2021/07/24 07:28:31;;;;;;;20.35;11.40;;;21.30;99.40;;;;;;4980801;28;20078;-78
2021/07/24 07:30:58;;;;;;;15.00;11.13;;;21.30;99.40;;;;;;4977097;28;20069;-80
2021/07/24 07:33:25;;;;;;;15.88;11.85;;;21.30;99.40;;;;;;4979990;28;20141;-79
2021/07/24 07:35:52;;;;;;;16.25;12.05;;;21.20;99.20;;;;;;4987975;28;20133;-80
2021/07/24 07:38:21;;;;;;;16.60;11.43;;;21.20;99.30;;;;;;4984095;28;20050;-79
2021/07/24 07:40:48;;;;;;;14.10;10.05;;;21.10;99.30;;;;;;4987966;28;20050;-79
2021/07/24 07:43:16;;;;;;;15.18;10.75;;;21.10;99.50;;;;;;4985595;28;20133;-79
2021/07/24 07:45:43;;;;;;;15.65;10.85;;;21.10;99.60;;;;;;4982248;28;20050;-78
2021/07/24 07:48:10;;;;;;;14.38;10.65;;;21.20;99.70;;;;;;4987262;28;20129;-79
2021/07/24 07:50:37;;;;;;;16.55;10.80;;;21.10;99.60;;;;;;4982371;28;20051;-77
2021/07/24 07:53:05;;;;;;;13.73;9.60;;;21.20;99.60;;;;;;4979824;28;20385;-77
2021/07/24 07:55:34;;;;;;;14.13;9.02;;;21.20;99.50;;;;;;4986980;28;20121;-80
2021/07/24 07:58:01;;;;;;;12.85;9.15;;;21.30;99.50;;;;;;4980213;28;20435;-79
2021/07/24 08:00:28;;;;;;;14.13;9.40;;;21.30;99.40;;;;;;4982051;28;20047;-79
2021/07/24 08:02:56;;;;;;;14.02;9.68;;;21.30;99.30;;;;;;4983110;28;20137;-78
2021/07/24 08:05:23;;;;;;;12.77;9.23;;;21.40;99.20;;;;;;4990095;28;20507;-81
2021/07/24 08:07:50;;;;;;;15.02;9.25;;;21.40;99.30;;;;;;4982473;28;20057;-78
2021/07/24 08:10:19;;;;;;;14.63;9.70;;;21.50;99.40;;;;;;4992645;28;20097;-80
2021/07/24 08:12:48;;;;;;;13.10;9.05;;;21.50;99.30;;;;;;4995128;28;20526;-79
2021/07/24 08:15:15;;;;;;;12.57;9.35;;;21.60;99.20;;;;;;4996076;28;20047;-80
2021/07/24 08:17:42;;;;;;;13.23;9.27;;;21.60;99.20;;;;;;4990612;28;20053;-79
2021/07/24 08:20:10;;;;;;;17.90;11.85;;;21.70;99.30;;;;;;4988587;28;20046;-78
2021/07/24 08:22:38;;;;;;;16.38;11.68;;;21.70;99.30;;;;;;4986354;28;20050;-79
2021/07/24 08:25:07;;;;;;;15.88;10.82;;;21.80;99.40;;;;;;4985795;28;20046;-77
2021/07/24 08:27:34;;;;;;;13.32;9.52;;;21.90;99.20;;;;;;4989229;28;20514;-80
2021/07/24 08:30:04;;;;;;;11.80;9.07;;;21.90;99.20;;;;;;4983290;28;20046;-80
2021/07/24 08:32:31;;;;;;;12.70;9.10;;;22.00;99.30;;;;;;4983816;28;20389;-78
2021/07/24 08:34:58;;;;;;;11.35;8.10;;;22.10;99.10;;;;;;4982639;28;20054;-80
2021/07/24 08:37:25;;;;;;;13.10;8.55;;;22.20;99.10;;;;;;4984566;28;20057;-81
2021/07/24 08:39:52;;;;;;;16.00;8.25;;;22.30;99.00;;;;;;4980897;28;20049;-80
2021/07/24 08:42:31;;;;;;;11.82;7.97;;;22.40;99.00;;;;;;4986393;28;20134;-80
2021/07/24 08:45:00;;;;;;;10.88;7.22;;;22.60;98.80;;;;;;4984484;28;20453;-78
2021/07/24 08:47:30;;;;;;;12.90;8.35;;;22.70;98.60;;;;;;4981007;28;20389;-76
2021/07/24 08:49:57;;;;;;;10.60;7.65;;;22.80;98.50;;;;;;4994023;28;20137;-77
2021/07/24 08:52:28;;;;;;;12.98;8.18;;;23.00;98.30;;;;;;4993837;28;20112;-79
2021/07/24 08:54:55;;;;;;;10.07;7.20;;;23.10;98.10;;;;;;4993775;28;20046;-75
2021/07/24 08:57:26;;;;;;;10.25;6.55;;;23.20;97.80;;;;;;4993926;28;20472;-78
2021/07/24 08:59:56;;;;;;;11.23;7.60;;;23.40;97.50;;;;;;4994158;28;20428;-79
2021/07/24 09:02:29;;;;;;;12.93;8.85;;;23.50;97.20;;;;;;4996656;28;20049;-79
2021/07/24 09:05:01;;;;;;;11.32;7.85;;;23.60;96.80;;;;;;4999228;28;20458;-76
2021/07/24 09:07:32;;;;;;;12.65;7.82;;;23.70;96.80;;;;;;4993928;28;20129;-76
2021/07/24 09:10:01;;;;;;;11.05;7.93;;;23.70;96.90;;;;;;4993543;28;20125;-76
2021/07/24 09:12:28;;;;;;;10.63;7.50;;;23.70;96.80;;;;;;4999982;28;20070;-74
2021/07/24 09:14:57;;;;;;;11.25;8.02;;;23.80;96.70;;;;;;4997310;28;20078;-77
2021/07/24 09:17:24;;;;;;;11.73;7.90;;;23.90;96.40;;;;;;4975014;28;20135;-77
2021/07/24 09:19:53;;;;;;;13.43;8.55;;;23.90;96.40;;;;;;4974481;28;20125;-77
2021/07/24 09:22:27;;;;;;;11.15;7.95;;;24.00;96.40;;;;;;4977978;28;20142;-76
2021/07/24 09:25:10;;;;;;;12.15;7.65;;;24.00;96.40;;;;;;4983920;28;20047;-74
2021/07/24 09:27:39;;;;;;;12.90;8.35;;;24.10;96.30;;;;;;4985297;28;20489;-78
2021/07/24 09:30:10;;;;;;;11.85;7.88;;;24.10;96.20;;;;;;4986505;28;20419;-79
2021/07/24 09:32:39;;;;;;;11.63;7.75;;;24.20;96.10;;;;;;4978757;28;20047;-78
2021/07/24 09:35:09;;;;;;;11.32;8.13;;;24.20;96.00;;;;;;4987569;28;20128;-76
2021/07/24 09:37:36;;;;;;;14.05;9.00;;;24.20;95.90;;;;;;4990087;28;20053;-78
2021/07/24 09:40:22;;;;;;;12.90;8.70;;;24.20;95.90;;;;;;4986893;28;20058;-76
2021/07/24 09:42:49;;;;;;;12.85;8.77;;;24.30;95.60;;;;;;4983512;28;20488;-77
2021/07/24 09:45:16;;;;;;;12.60;8.32;;;24.30;95.60;;;;;;4989747;28;20086;-81
2021/07/24 09:47:43;;;;;;;14.15;9.07;;;24.30;95.70;;;;;;4993855;28;20129;-79
2021/07/24 09:50:14;;;;;;;12.60;9.10;;;24.40;95.50;;;;;;4984808;28;20046;-78
2021/07/24 09:52:49;;;;;;;12.65;8.98;;;24.40;95.40;;;;;;4991345;28;20043;-79
2021/07/24 09:55:19;;;;;;;14.27;9.10;;;24.40;95.20;;;;;;4986854;28;20121;-79
2021/07/24 09:57:47;;;;;;;13.77;9.43;;;24.40;95.00;;;;;;4988093;28;20463;-77
2021/07/24 10:00:28;;;;;;;12.45;8.60;;;24.50;94.90;;;;;;4990422;28;20489;-77
2021/07/24 10:03:03;;;;;;;11.40;7.78;;;24.50;94.90;;;;;;4989186;28;20062;-78
2021/07/24 10:05:38;;;;;;;11.23;7.95;;;24.60;95.10;;;;;;4989951;28;20078;-78
2021/07/24 10:08:07;;;;;;;;;;;24.70;95.10;;;;;;4984933;28;20045;-78
2021/07/24 10:10:39;;;;;;;11.98;7.82;;;24.80;95.20;;;;;;4988969;28;20093;-80
2021/07/24 10:13:09;;;;;;;11.20;7.50;;;24.80;95.00;;;;;;4992189;28;20060;-80
2021/07/24 10:15:39;;;;;;;12.00;7.93;;;24.90;94.80;;;;;;4986350;28;20046;-82
2021/07/24 10:18:08;;;;;;;12.48;9.00;;;25.00;94.40;;;;;;4994511;28;20136;-83
2021/07/24 10:20:39;;;;;;;13.70;9.50;;;25.00;94.10;;;;;;4990457;28;20038;-78
2021/07/24 10:23:06;;;;;;;13.25;8.63;;;25.10;94.10;;;;;;4989554;28;20060;-78
2021/07/24 10:25:47;;;;;;;12.80;8.98;;;25.20;94.20;;;;;;4983750;28;20125;-79
2021/07/24 10:28:16;;;;;;;12.88;8.25;;;25.30;93.80;;;;;;4985317;28;20038;-81
2021/07/24 10:30:44;;;;;;;12.45;8.55;;;25.40;93.90;;;;;;4988824;28;20050;-80
2021/07/24 10:33:11;;;;;;;11.40;8.30;;;25.60;93.80;;;;;;4987980;28;20540;-79
2021/07/24 10:35:42;;;;;;;11.10;8.18;;;25.60;93.40;;;;;;4988401;28;20045;-79
2021/07/24 10:38:28;;;;;;;11.50;7.85;;;;;;;;;;4982364;28;20556;-82
2021/07/24 10:40:55;;;;;;;10.88;8.40;;;;;;;;;;4991549;28;20447;-79
2021/07/24 10:44:00;;;;;;;11.10;8.20;;;;;;;;;;5000221;28;20129;-78
2021/07/24 10:47:13;;;;;;;11.13;7.25;;;;;;;;;;4987291;28;20057;-78
2021/07/24 10:50:02;;;;;;;10.13;6.80;;;;;;;;;;4982093;28;20112;-78
2021/07/24 10:53:14;;;;;;;10.27;6.82;;;;;;;;;;4982683;28;20055;-80
2021/07/24 10:55:52;;;;;;;10.23;7.10;;;;;;;;;;4987884;28;20134;-80
2021/07/24 10:58:22;;;;;;;12.48;7.53;;;;;;;;;;4987281;28;20130;-79
2021/07/24 11:00:52;;;;;;;10.52;7.47;;;26.50;89.40;;;;;;4996043;28;20054;-81
2021/07/24 11:03:46;;;;;;;11.23;7.97;;;26.50;89.90;;;;;;4995382;28;20145;-78
2021/07/24 11:06:31;;;;;;;11.65;7.70;;;26.40;90.10;;;;;;4992690;28;20093;-80
2021/07/24 11:09:28;;;;;;;11.13;7.40;;;26.30;90.60;;;;;;4977696;28;20102;-79
2021/07/24 11:12:08;;;;;;;13.20;7.47;;;26.40;90.40;;;;;;4977645;28;20445;-81
2021/07/24 11:14:50;;;;;;;10.95;7.57;;;26.40;90.70;;;;;;4986612;28;20086;-78
2021/07/24 11:17:19;;;;;;;11.05;7.53;;;26.40;90.50;;;;;;4996055;28;20042;-79
2021/07/24 11:20:31;;;;;;;12.02;7.55;;;26.30;89.90;;;;;;4995667;28;20408;-79
2021/07/24 11:23:08;;;;;;;12.80;6.90;;;26.30;88.90;;;;;;4996000;28;20054;-85
2021/07/24 11:25:37;;;;;;;9.23;6.10;;;26.20;87.60;;;;;;4995231;28;20046;-78
2021/07/24 11:28:07;;;;;;;9.65;5.60;;;26.20;87.30;;;;;;4996219;28;20132;-79
2021/07/24 11:30:34;;;;;;;8.90;5.60;;;26.10;85.70;;;;;;4995700;28;20050;-80
2021/07/24 11:33:02;;;;;;;8.15;5.03;;;26.10;85.20;;;;;;4979478;28;20057;-80
2021/07/24 11:35:38;;;;;;;8.02;4.40;;;26.00;84.70;;;;;;4994822;28;20133;-80
2021/07/24 11:38:20;;;;;;;7.03;4.72;;;25.90;85.00;;;;;;4984885;28;20061;-85
2021/07/24 11:41:02;;;;;;;8.43;4.50;;;25.90;85.00;;;;;;4982907;28;20043;-79
2021/07/24 11:43:31;;;;;;;8.27;4.45;;;25.90;85.30;;;;;;4979852;28;20049;-80
2021/07/24 11:46:03;;;;;;;8.68;4.65;;;25.90;85.20;;;;;;4987673;28;20137;-79
2021/07/24 11:48:31;;;;;;;6.95;4.50;;;25.90;85.10;;;;;;4986755;28;20049;-78
2021/07/24 11:51:06;;;;;;;6.95;4.00;;;25.90;85.30;;;;;;4983960;28;20085;-75
2021/07/24 11:53:34;;;;;;;7.80;4.57;;;26.00;85.30;;;;;;4985104;28;20479;-78
2021/07/24 11:56:02;;;;;;;9.43;4.65;;;26.00;85.10;;;;;;4984453;28;20038;-79
2021/07/24 11:58:31;;;;;;;9.25;5.30;;;26.20;84.80;;;;;;4983166;28;20071;-80
2021/07/24 12:01:01;;;;;;;6.88;4.45;;;26.20;83.70;;;;;;4982163;28;20047;-80
2021/07/24 12:03:31;;;;;;;8.70;5.38;;;26.20;83.60;;;;;;4993038;28;20097;-80
2021/07/24 12:06:09;;;;;;;9.45;4.90;;;26.20;83.10;;;;;;4986064;28;20046;-79
2021/07/24 12:08:40;;;;;;;7.13;4.40;;;26.30;81.30;;;;;;4982905;28;20129;-79
2021/07/24 12:11:13;;;;;;;8.85;4.80;;;26.50;81.10;;;;;;4989116;28;20141;-80
2021/07/24 12:13:44;;;;;;;6.80;4.57;;;26.60;80.60;;;;;;4998182;28;20053;-79
2021/07/24 12:16:12;;;;;;;9.27;5.03;;;26.60;80.80;;;;;;4993747;28;20154;-80
2021/07/24 12:18:42;;;;;;;9.10;5.20;;;26.70;80.50;;;;;;4995543;28;20046;-76
2021/07/24 12:21:12;;;;;;;8.55;4.78;;;26.80;79.80;;;;;;4994419;28;20125;-77
2021/07/24 12:23:44;;;;;;;9.30;5.10;;;26.90;80.80;;;;;;4994054;28;20061;-77
2021/07/24 12:26:15;;;;;;;8.60;4.95;;;27.10;80.20;;;;;;4987893;28;20131;-74
2021/07/24 12:28:44;;;;;;;7.07;4.50;;;27.20;79.40;;;;;;4995675;28;20138;-76
2021/07/24 12:31:26;;;;;;;8.10;4.47;;;27.40;77.10;;;;;;4992894;28;20102;-76
2021/07/24 12:33:55;;;;;;;7.63;4.28;;;27.50;75.10;;;;;;4989040;28;20042;-80
2021/07/24 12:36:24;;;;;;;8.73;4.45;;;27.60;75.50;;;;;;4990889;28;20141;-79
2021/07/24 12:38:52;;;;;;;7.82;4.53;;;27.60;75.10;;;;;;4983392;28;20133;-77
2021/07/24 12:41:30;;;;;;;8.85;4.40;;;27.70;74.40;;;;;;4989630;28;20404;-78
2021/07/24 12:44:09;;;;;;;6.95;4.45;;;27.80;72.90;;;;;;4993950;28;20102;-80
2021/07/24 12:46:38;;;;;;;8.50;4.63;;;27.90;73.00;;;;;;4990658;28;20146;-78
2021/07/24 12:49:06;;;;;;;6.65;4.28;;;28.00;71.50;;;;;;4994603;28;20428;-79
2021/07/24 12:51:36;;;;;;;6.47;4.28;;;28.10;71.20;;;;;;4987118;28;20051;-80
2021/07/24 12:54:09;;;;;;;7.25;4.60;;;28.00;71.30;;;;;;4991203;28;20081;-79
2021/07/24 12:56:38;;;;;;;6.88;4.10;;;28.00;70.30;;;;;;4990364;28;20491;-79
2021/07/24 12:59:07;;;;;;;6.30;3.80;;;28.00;70.20;;;;;;4993970;28;20053;-79